AAL3005 KMIA-KCLT
Flight info
| Callsign | AAL3005 |
|---|---|
| Flight time | 1h 36m |
| Altitude | 39000 |
| Route | ALTNN2 DUCEN Q87 VIYAP CHECR STOCR4 |
| Aircraft | B772/H-SDE1E3FGHIJ1J3J4J5M1P2RWXYZ/AA1DCD |
Departure
| Time | 2026-05-04 15:17 |
|---|---|
| Airport | Miami International Airport (KMIA) |
Arrival
| Time | 2026-05-04 16:53 |
|---|---|
| Airport | Charlotte Douglas International Airport (KCLT) |
| Time | Latitude | Longitude | Altitude | Speed | Heading |
|---|---|---|---|---|---|
| 2026-05-04 14:23 | 25.79785 | -80.27892 | 20 ft | 0 kts | 177° |
| 2026-05-04 15:03 | 25.79786 | -80.27892 | 20 ft | 1 kts | 177° |
| 2026-05-04 15:03 | 25.79801 | -80.27893 | 20 ft | 2 kts | 177° |
| 2026-05-04 15:04 | 25.79816 | -80.27894 | 20 ft | 2 kts | 177° |
| 2026-05-04 15:04 | 25.79831 | -80.27895 | 20 ft | 2 kts | 181° |
| 2026-05-04 15:04 | 25.79846 | -80.27892 | 20 ft | 2 kts | 201° |
| 2026-05-04 15:04 | 25.79859 | -80.27885 | 20 ft | 2 kts | 216° |
| 2026-05-04 15:05 | 25.79870 | -80.27874 | 20 ft | 2 kts | 231° |
| 2026-05-04 15:05 | 25.79878 | -80.27860 | 20 ft | 2 kts | 246° |
| 2026-05-04 15:05 | 25.79883 | -80.27845 | 20 ft | 2 kts | 261° |
| 2026-05-04 15:05 | 25.79884 | -80.27836 | 20 ft | 1 kts | 269° |
| 2026-05-04 15:06 | 25.79884 | -80.27835 | 20 ft | 0 kts | 269° |
| 2026-05-04 15:10 | 25.79882 | -80.27884 | 20 ft | 6 kts | 267° |
| 2026-05-04 15:10 | 25.79879 | -80.27940 | 20 ft | 8 kts | 267° |
| 2026-05-04 15:10 | 25.79898 | -80.28056 | 20 ft | 9 kts | 271° |
| 2026-05-04 15:11 | 25.79897 | -80.28119 | 20 ft | 5 kts | 284° |
| 2026-05-04 15:11 | 25.79931 | -80.28141 | 20 ft | 7 kts | 0° |
| 2026-05-04 15:11 | 25.79989 | -80.28142 | 20 ft | 9 kts | 349° |
| 2026-05-04 15:11 | 25.80036 | -80.28175 | 20 ft | 7 kts | 297° |
| 2026-05-04 15:12 | 25.80038 | -80.28239 | 20 ft | 9 kts | 269° |
| 2026-05-04 15:12 | 25.80036 | -80.28319 | 20 ft | 11 kts | 267° |
| 2026-05-04 15:12 | 25.80031 | -80.28413 | 20 ft | 13 kts | 267° |
| 2026-05-04 15:12 | 25.80027 | -80.28519 | 20 ft | 14 kts | 267° |
| 2026-05-04 15:13 | 25.80022 | -80.28635 | 20 ft | 15 kts | 268° |
| 2026-05-04 15:13 | 25.80018 | -80.28760 | 20 ft | 16 kts | 268° |
| 2026-05-04 15:13 | 25.80014 | -80.28894 | 20 ft | 17 kts | 268° |
| 2026-05-04 15:13 | 25.80006 | -80.29035 | 20 ft | 18 kts | 266° |
| 2026-05-04 15:14 | 25.80000 | -80.29182 | 20 ft | 19 kts | 268° |
| 2026-05-04 15:14 | 25.79995 | -80.29335 | 20 ft | 20 kts | 268° |
| 2026-05-04 15:14 | 25.79989 | -80.29493 | 20 ft | 20 kts | 268° |
| 2026-05-04 15:14 | 25.79979 | -80.29655 | 20 ft | 21 kts | 267° |
| 2026-05-04 15:15 | 25.79973 | -80.29823 | 20 ft | 22 kts | 268° |
| 2026-05-04 15:15 | 25.79976 | -80.29962 | 20 ft | 15 kts | 282° |
| 2026-05-04 15:15 | 25.80007 | -80.30076 | 20 ft | 13 kts | 292° |
| 2026-05-04 15:16 | 25.80074 | -80.30073 | 20 ft | 7 kts | 87° |
| 2026-05-04 15:16 | 25.80074 | -80.30048 | 20 ft | 8 kts | 88° |
| 2026-05-04 15:16 | 25.80132 | -80.28687 | 22 ft | 159 kts | 84° |
| 2026-05-04 15:17 | 25.80213 | -80.27370 | 545 ft | 169 kts | 81° |
| 2026-05-04 15:17 | 25.80359 | -80.24760 | 1733 ft | 183 kts | 84° |
| 2026-05-04 15:17 | 25.80412 | -80.23282 | 2090 ft | 201 kts | 85° |
| 2026-05-04 15:18 | 25.80468 | -80.21667 | 2477 ft | 219 kts | 85° |
| 2026-05-04 15:18 | 25.80535 | -80.19911 | 3009 ft | 237 kts | 82° |
| 2026-05-04 15:18 | 25.81017 | -80.18119 | 3569 ft | 254 kts | 59° |
| 2026-05-04 15:19 | 25.83912 | -80.15909 | 5013 ft | 269 kts | 6° |
| 2026-05-04 15:19 | 25.85776 | -80.15801 | 5876 ft | 272 kts | 359° |
| 2026-05-04 15:19 | 25.89606 | -80.15888 | 7459 ft | 279 kts | 346° |
| 2026-05-04 15:20 | 25.91477 | -80.16443 | 8260 ft | 280 kts | 340° |
| 2026-05-04 15:20 | 25.93335 | -80.17090 | 9045 ft | 282 kts | 339° |
| 2026-05-04 15:20 | 25.95214 | -80.17752 | 9781 ft | 286 kts | 339° |
| 2026-05-04 15:20 | 25.97126 | -80.18422 | 10412 ft | 294 kts | 338° |
| 2026-05-04 15:21 | 25.99169 | -80.19028 | 10841 ft | 314 kts | 346° |
| 2026-05-04 15:21 | 26.01410 | -80.19311 | 11294 ft | 332 kts | 350° |
| 2026-05-04 15:21 | 26.06228 | -80.19792 | 12274 ft | 362 kts | 349° |
| 2026-05-04 15:22 | 26.08790 | -80.20054 | 12814 ft | 376 kts | 349° |
| 2026-05-04 15:22 | 26.11442 | -80.20325 | 13608 ft | 383 kts | 349° |
| 2026-05-04 15:22 | 26.16800 | -80.20875 | 15389 ft | 391 kts | 349° |
| 2026-05-04 15:23 | 26.19530 | -80.21157 | 16198 ft | 398 kts | 349° |
| 2026-05-04 15:23 | 26.22305 | -80.21419 | 17003 ft | 404 kts | 349° |
| 2026-05-04 15:23 | 26.25128 | -80.21669 | 17803 ft | 411 kts | 350° |
| 2026-05-04 15:23 | 26.28001 | -80.21923 | 18637 ft | 416 kts | 350° |
| 2026-05-04 15:24 | 26.33820 | -80.22439 | 20491 ft | 422 kts | 349° |
| 2026-05-04 15:24 | 26.39722 | -80.22979 | 22211 ft | 429 kts | 349° |
| 2026-05-04 15:25 | 26.42711 | -80.23288 | 23034 ft | 433 kts | 348° |
| 2026-05-04 15:25 | 26.45731 | -80.23601 | 23829 ft | 437 kts | 348° |
| 2026-05-04 15:25 | 26.48776 | -80.23917 | 24637 ft | 441 kts | 348° |
| 2026-05-04 15:26 | 26.54937 | -80.24554 | 26148 ft | 449 kts | 348° |
| 2026-05-04 15:26 | 26.58067 | -80.24913 | 26880 ft | 450 kts | 345° |
| 2026-05-04 15:26 | 26.64311 | -80.25977 | 28142 ft | 458 kts | 344° |
| 2026-05-04 15:27 | 26.67470 | -80.26519 | 28814 ft | 460 kts | 343° |
| 2026-05-04 15:27 | 26.73631 | -80.28303 | 29991 ft | 457 kts | 333° |
| 2026-05-04 15:28 | 26.79511 | -80.30763 | 32029 ft | 444 kts | 332° |
| 2026-05-04 15:28 | 26.82389 | -80.31968 | 33088 ft | 436 kts | 332° |
| 2026-05-04 15:28 | 26.88075 | -80.34357 | 34515 ft | 435 kts | 332° |
| 2026-05-04 15:29 | 26.90955 | -80.35567 | 35164 ft | 436 kts | 332° |
| 2026-05-04 15:30 | 27.02471 | -80.40273 | 37392 ft | 439 kts | 332° |
| 2026-05-04 15:30 | 27.11174 | -80.43816 | 38618 ft | 441 kts | 330° |
| 2026-05-04 15:31 | 27.16923 | -80.46368 | 39044 ft | 445 kts | 330° |
| 2026-05-04 15:31 | 27.19814 | -80.47651 | 39045 ft | 442 kts | 330° |
| 2026-05-04 15:32 | 27.34148 | -80.54003 | 39052 ft | 440 kts | 330° |
| 2026-05-04 15:34 | 27.48655 | -80.59896 | 39058 ft | 440 kts | 333° |
| 2026-05-04 15:34 | 27.57365 | -80.63352 | 39061 ft | 444 kts | 333° |
| 2026-05-04 15:35 | 27.66121 | -80.66836 | 39076 ft | 441 kts | 332° |
| 2026-05-04 15:36 | 27.74913 | -80.70346 | 39076 ft | 441 kts | 333° |
| 2026-05-04 15:36 | 27.80692 | -80.72656 | 39076 ft | 441 kts | 333° |
| 2026-05-04 15:37 | 27.86543 | -80.75000 | 39080 ft | 444 kts | 333° |
| 2026-05-04 15:37 | 27.92350 | -80.77325 | 39088 ft | 439 kts | 333° |
| 2026-05-04 15:38 | 27.98126 | -80.79644 | 39095 ft | 441 kts | 333° |
| 2026-05-04 15:38 | 28.03957 | -80.81986 | 39093 ft | 440 kts | 333° |
| 2026-05-04 15:39 | 28.09751 | -80.84317 | 39093 ft | 440 kts | 333° |
| 2026-05-04 15:40 | 28.18414 | -80.87805 | 39092 ft | 438 kts | 333° |
| 2026-05-04 15:40 | 28.24158 | -80.90121 | 39101 ft | 435 kts | 333° |
| 2026-05-04 15:41 | 28.29913 | -80.92447 | 39097 ft | 436 kts | 333° |
| 2026-05-04 15:41 | 28.35663 | -80.94772 | 39100 ft | 438 kts | 333° |
| 2026-05-04 15:42 | 28.41411 | -80.97097 | 39100 ft | 435 kts | 333° |
| 2026-05-04 15:42 | 28.47123 | -80.99412 | 39103 ft | 435 kts | 333° |
| 2026-05-04 15:43 | 28.52852 | -81.01737 | 39104 ft | 434 kts | 333° |
| 2026-05-04 15:43 | 28.58556 | -81.04053 | 39100 ft | 434 kts | 333° |
| 2026-05-04 15:44 | 28.64297 | -81.06388 | 39104 ft | 435 kts | 333° |
| 2026-05-04 15:44 | 28.70030 | -81.08721 | 39103 ft | 434 kts | 333° |
| 2026-05-04 15:45 | 28.75731 | -81.11044 | 39100 ft | 432 kts | 333° |
| 2026-05-04 15:45 | 28.81450 | -81.13379 | 39097 ft | 434 kts | 333° |
| 2026-05-04 15:46 | 28.87123 | -81.15695 | 39102 ft | 430 kts | 333° |
| 2026-05-04 15:46 | 28.92788 | -81.18013 | 39100 ft | 432 kts | 333° |
| 2026-05-04 15:47 | 28.98471 | -81.20341 | 39103 ft | 433 kts | 333° |
| 2026-05-04 15:47 | 29.04160 | -81.22672 | 39104 ft | 431 kts | 333° |
| 2026-05-04 15:48 | 29.09844 | -81.25004 | 39109 ft | 430 kts | 333° |
| 2026-05-04 15:48 | 29.18346 | -81.28500 | 39110 ft | 430 kts | 333° |
| 2026-05-04 15:49 | 29.23990 | -81.30822 | 39109 ft | 428 kts | 333° |
| 2026-05-04 15:49 | 29.29868 | -81.32455 | 39108 ft | 444 kts | 347° |
| 2026-05-04 15:50 | 29.36071 | -81.32843 | 39113 ft | 447 kts | 348° |
| 2026-05-04 15:50 | 29.42306 | -81.33194 | 39110 ft | 446 kts | 348° |
| 2026-05-04 15:51 | 29.48506 | -81.33550 | 39109 ft | 445 kts | 348° |
| 2026-05-04 15:51 | 29.54730 | -81.33915 | 39111 ft | 447 kts | 348° |
| 2026-05-04 15:52 | 29.60915 | -81.34276 | 39105 ft | 443 kts | 348° |
| 2026-05-04 15:52 | 29.67105 | -81.34643 | 39103 ft | 446 kts | 348° |
| 2026-05-04 15:53 | 29.73297 | -81.35007 | 39111 ft | 443 kts | 348° |
| 2026-05-04 15:53 | 29.79482 | -81.35373 | 39107 ft | 442 kts | 348° |
| 2026-05-04 15:54 | 29.85654 | -81.35741 | 39107 ft | 443 kts | 348° |
| 2026-05-04 15:54 | 29.91826 | -81.36107 | 39112 ft | 442 kts | 348° |
| 2026-05-04 15:55 | 29.97988 | -81.36474 | 39114 ft | 442 kts | 348° |
| 2026-05-04 15:55 | 30.04131 | -81.36840 | 39115 ft | 442 kts | 348° |
| 2026-05-04 15:56 | 30.10295 | -81.37207 | 39114 ft | 441 kts | 348° |
| 2026-05-04 15:56 | 30.16424 | -81.37573 | 39121 ft | 440 kts | 348° |
| 2026-05-04 15:57 | 30.22583 | -81.37943 | 39117 ft | 442 kts | 347° |
| 2026-05-04 15:57 | 30.28748 | -81.38311 | 39121 ft | 440 kts | 347° |
| 2026-05-04 15:58 | 30.34883 | -81.38679 | 39116 ft | 440 kts | 347° |
| 2026-05-04 15:58 | 30.41020 | -81.39049 | 39117 ft | 442 kts | 347° |
| 2026-05-04 15:59 | 30.47165 | -81.39414 | 39119 ft | 439 kts | 348° |
| 2026-05-04 15:59 | 30.53314 | -81.39738 | 39125 ft | 440 kts | 347° |
| 2026-05-04 16:00 | 30.59483 | -81.40062 | 39120 ft | 442 kts | 348° |
| 2026-05-04 16:00 | 30.65618 | -81.40384 | 39123 ft | 440 kts | 347° |
| 2026-05-04 16:01 | 30.71774 | -81.40712 | 39124 ft | 443 kts | 347° |
| 2026-05-04 16:01 | 30.77899 | -81.41034 | 39118 ft | 438 kts | 347° |
| 2026-05-04 16:02 | 30.84006 | -81.41359 | 39109 ft | 439 kts | 347° |
| 2026-05-04 16:03 | 30.93161 | -81.41846 | 39111 ft | 439 kts | 347° |
| 2026-05-04 16:03 | 30.99279 | -81.42174 | 39113 ft | 441 kts | 347° |
| 2026-05-04 16:04 | 31.05415 | -81.42502 | 39123 ft | 441 kts | 347° |
| 2026-05-04 16:04 | 31.14641 | -81.42993 | 39126 ft | 438 kts | 347° |
| 2026-05-04 16:05 | 31.20771 | -81.43323 | 39124 ft | 440 kts | 347° |
| 2026-05-04 16:05 | 31.26979 | -81.42735 | 39123 ft | 460 kts | 4° |
| 2026-05-04 16:06 | 31.30072 | -81.41639 | 39132 ft | 468 kts | 9° |
| 2026-05-04 16:07 | 31.42499 | -81.36554 | 39121 ft | 470 kts | 9° |
| 2026-05-04 16:08 | 31.54895 | -81.31483 | 39113 ft | 470 kts | 9° |
| 2026-05-04 16:09 | 31.70393 | -81.25137 | 39124 ft | 474 kts | 10° |
| 2026-05-04 16:10 | 31.82843 | -81.20024 | 39124 ft | 475 kts | 10° |
| 2026-05-04 16:11 | 31.95290 | -81.14897 | 39108 ft | 472 kts | 10° |
| 2026-05-04 16:12 | 32.13928 | -81.07193 | 39121 ft | 472 kts | 10° |
| 2026-05-04 16:13 | 32.26410 | -81.02016 | 39129 ft | 473 kts | 11° |
| 2026-05-04 16:14 | 32.38866 | -80.96834 | 39128 ft | 474 kts | 11° |
| 2026-05-04 16:16 | 32.54410 | -80.90345 | 39118 ft | 472 kts | 11° |
| 2026-05-04 16:17 | 32.70001 | -80.83814 | 39122 ft | 474 kts | 12° |
| 2026-05-04 16:18 | 32.81943 | -80.76498 | 39119 ft | 483 kts | 21° |
| 2026-05-04 16:19 | 32.96705 | -80.66892 | 39128 ft | 483 kts | 21° |
| 2026-05-04 16:20 | 33.11489 | -80.57240 | 39132 ft | 486 kts | 21° |
| 2026-05-04 16:22 | 33.26261 | -80.47553 | 38898 ft | 473 kts | 21° |
| 2026-05-04 16:22 | 33.35036 | -80.41791 | 36183 ft | 483 kts | 22° |
| 2026-05-04 16:23 | 33.43935 | -80.35929 | 33986 ft | 491 kts | 22° |
| 2026-05-04 16:24 | 33.56015 | -80.27946 | 30497 ft | 494 kts | 24° |
| 2026-05-04 16:25 | 33.61939 | -80.24016 | 29493 ft | 479 kts | 24° |
| 2026-05-04 16:26 | 33.73188 | -80.16527 | 28250 ft | 438 kts | 24° |
| 2026-05-04 16:26 | 33.81131 | -80.11240 | 26584 ft | 431 kts | 24° |
| 2026-05-04 16:27 | 33.86342 | -80.07763 | 25609 ft | 424 kts | 24° |
| 2026-05-04 16:28 | 33.94017 | -80.02689 | 24171 ft | 412 kts | 20° |
| 2026-05-04 16:28 | 34.02086 | -80.01084 | 22806 ft | 380 kts | 348° |
| 2026-05-04 16:29 | 34.11766 | -80.05293 | 21808 ft | 366 kts | 332° |
| 2026-05-04 16:30 | 34.18666 | -80.09167 | 21026 ft | 360 kts | 330° |
| 2026-05-04 16:31 | 34.23161 | -80.11790 | 20511 ft | 357 kts | 330° |
| 2026-05-04 16:31 | 34.29838 | -80.15728 | 19749 ft | 353 kts | 330° |
| 2026-05-04 16:32 | 34.36440 | -80.19639 | 18998 ft | 350 kts | 330° |
| 2026-05-04 16:33 | 34.40807 | -80.22231 | 18499 ft | 347 kts | 330° |
| 2026-05-04 16:33 | 34.45142 | -80.24807 | 18005 ft | 344 kts | 330° |
| 2026-05-04 16:34 | 34.49436 | -80.27363 | 17424 ft | 342 kts | 331° |
| 2026-05-04 16:34 | 34.51564 | -80.28630 | 17154 ft | 339 kts | 331° |
| 2026-05-04 16:35 | 34.57894 | -80.32404 | 16413 ft | 333 kts | 331° |
| 2026-05-04 16:35 | 34.63513 | -80.36861 | 15714 ft | 318 kts | 320° |
| 2026-05-04 16:36 | 34.65241 | -80.38529 | 15487 ft | 316 kts | 320° |
| 2026-05-04 16:36 | 34.68682 | -80.41846 | 15031 ft | 314 kts | 320° |
| 2026-05-04 16:37 | 34.72097 | -80.45145 | 14576 ft | 311 kts | 319° |
| 2026-05-04 16:37 | 34.73777 | -80.46800 | 14355 ft | 310 kts | 319° |
| 2026-05-04 16:37 | 34.77115 | -80.50090 | 13908 ft | 307 kts | 319° |
| 2026-05-04 16:38 | 34.80390 | -80.53314 | 13479 ft | 295 kts | 319° |
| 2026-05-04 16:39 | 34.85364 | -80.57192 | 12888 ft | 283 kts | 332° |
| 2026-05-04 16:39 | 34.88940 | -80.59242 | 12535 ft | 281 kts | 332° |
| 2026-05-04 16:40 | 34.92496 | -80.61275 | 12207 ft | 281 kts | 332° |
| 2026-05-04 16:40 | 34.96056 | -80.63319 | 11855 ft | 280 kts | 332° |
| 2026-05-04 16:41 | 34.99580 | -80.65343 | 11525 ft | 278 kts | 332° |
| 2026-05-04 16:41 | 35.04823 | -80.68379 | 11026 ft | 277 kts | 332° |
| 2026-05-04 16:42 | 35.09986 | -80.71356 | 10245 ft | 274 kts | 332° |
| 2026-05-04 16:43 | 35.13415 | -80.73333 | 9642 ft | 271 kts | 332° |
| 2026-05-04 16:43 | 35.16837 | -80.75314 | 8974 ft | 271 kts | 332° |
| 2026-05-04 16:43 | 35.18546 | -80.76314 | 8621 ft | 272 kts | 332° |
| 2026-05-04 16:44 | 35.25331 | -80.80345 | 7346 ft | 270 kts | 332° |
| 2026-05-04 16:45 | 35.28687 | -80.82355 | 6738 ft | 267 kts | 332° |
| 2026-05-04 16:46 | 35.34113 | -80.83889 | 5733 ft | 270 kts | 352° |
| 2026-05-04 16:46 | 35.37854 | -80.84376 | 5074 ft | 270 kts | 352° |
| 2026-05-04 16:47 | 35.41541 | -80.85112 | 4411 ft | 266 kts | 333° |
| 2026-05-04 16:47 | 35.43684 | -80.88541 | 3668 ft | 262 kts | 277° |
| 2026-05-04 16:48 | 35.42586 | -80.94618 | 3229 ft | 228 kts | 226° |
| 2026-05-04 16:48 | 35.41324 | -80.95613 | 3165 ft | 209 kts | 195° |
| 2026-05-04 16:49 | 35.38702 | -80.94996 | 2969 ft | 186 kts | 171° |
| 2026-05-04 16:49 | 35.36233 | -80.94778 | 2947 ft | 171 kts | 178° |
| 2026-05-04 16:50 | 35.34012 | -80.94601 | 2945 ft | 150 kts | 178° |
| 2026-05-04 16:50 | 35.31990 | -80.94431 | 2586 ft | 143 kts | 178° |
| 2026-05-04 16:51 | 35.30001 | -80.94260 | 2219 ft | 142 kts | 178° |
| 2026-05-04 16:51 | 35.29008 | -80.94175 | 2034 ft | 142 kts | 177° |
| 2026-05-04 16:51 | 35.27023 | -80.94004 | 1662 ft | 142 kts | 177° |
| 2026-05-04 16:52 | 35.25051 | -80.93836 | 1285 ft | 141 kts | 177° |
| 2026-05-04 16:52 | 35.24066 | -80.93751 | 1099 ft | 141 kts | 176° |
| 2026-05-04 16:53 | 35.22102 | -80.93586 | 763 ft | 135 kts | 176° |
| 2026-05-04 16:53 | 35.20552 | -80.93485 | 762 ft | 14 kts | 202° |
| 2026-05-04 16:54 | 35.20512 | -80.93553 | 762 ft | 8 kts | 287° |
| 2026-05-04 16:55 | 35.20866 | -80.93612 | 762 ft | 16 kts | 355° |
| 2026-05-04 16:55 | 35.21114 | -80.93634 | 762 ft | 19 kts | 356° |
| 2026-05-04 16:56 | 35.21391 | -80.93658 | 762 ft | 20 kts | 356° |
| 2026-05-04 16:56 | 35.21634 | -80.93774 | 762 ft | 12 kts | 309° |
| 2026-05-04 16:57 | 35.21695 | -80.93861 | 762 ft | 14 kts | 312° |
| 2026-05-04 16:57 | 35.21787 | -80.93960 | 762 ft | 0 kts | 319° |
| 2026-05-04 16:58 | 35.21881 | -80.94003 | 762 ft | 9 kts | 359° |
| 2026-05-04 16:58 | 35.21951 | -80.94003 | 762 ft | 6 kts | 0° |
| 2026-05-04 16:59 | 35.22003 | -80.94003 | 762 ft | 0 kts | 359° |